sensor_id;sensor_type;location;lat;lon;timestamp;P1;durP1;ratioP1;P2;durP2;ratioP2
9409;SDS011;4744;52.576;13.568;2023-11-19T00:00:29;5.63;;;5.10;;
9409;SDS011;4744;52.576;13.568;2023-11-19T00:02:56;5.55;;;5.05;;
9409;SDS011;4744;52.576;13.568;2023-11-19T00:05:23;5.55;;;5.05;;
9409;SDS011;4744;52.576;13.568;2023-11-19T00:07:50;5.82;;;5.32;;
9409;SDS011;4744;52.576;13.568;2023-11-19T00:10:17;5.43;;;4.93;;
9409;SDS011;4744;52.576;13.568;2023-11-19T00:12:45;5.35;;;4.57;;
9409;SDS011;4744;52.576;13.568;2023-11-19T00:15:14;5.63;;;5.00;;
9409;SDS011;4744;52.576;13.568;2023-11-19T00:17:44;5.22;;;4.82;;
9409;SDS011;4744;52.576;13.568;2023-11-19T00:20:12;6.30;;;4.72;;
9409;SDS011;4744;52.576;13.568;2023-11-19T00:22:40;4.95;;;4.55;;
9409;SDS011;4744;52.576;13.568;2023-11-19T00:25:08;5.45;;;4.95;;
9409;SDS011;4744;52.576;13.568;2023-11-19T00:27:35;5.47;;;4.97;;
9409;SDS011;4744;52.576;13.568;2023-11-19T00:30:03;5.50;;;5.00;;
9409;SDS011;4744;52.576;13.568;2023-11-19T00:32:33;5.70;;;5.20;;
9409;SDS011;4744;52.576;13.568;2023-11-19T00:35:00;4.97;;;4.57;;
9409;SDS011;4744;52.576;13.568;2023-11-19T00:37:27;5.85;;;5.00;;
9409;SDS011;4744;52.576;13.568;2023-11-19T00:39:54;5.88;;;4.95;;
9409;SDS011;4744;52.576;13.568;2023-11-19T00:42:21;5.63;;;5.13;;
9409;SDS011;4744;52.576;13.568;2023-11-19T00:44:49;5.07;;;4.57;;
9409;SDS011;4744;52.576;13.568;2023-11-19T00:47:16;5.82;;;5.22;;
9409;SDS011;4744;52.576;13.568;2023-11-19T00:49:46;5.95;;;5.20;;
9409;SDS011;4744;52.576;13.568;2023-11-19T00:52:15;6.28;;;4.90;;
9409;SDS011;4744;52.576;13.568;2023-11-19T00:54:42;5.10;;;4.50;;
9409;SDS011;4744;52.576;13.568;2023-11-19T00:57:09;5.50;;;5.00;;
9409;SDS011;4744;52.576;13.568;2023-11-19T00:59:36;6.68;;;5.13;;
9409;SDS011;4744;52.576;13.568;2023-11-19T01:02:03;4.85;;;4.45;;
9409;SDS011;4744;52.576;13.568;2023-11-19T01:04:33;5.05;;;4.55;;
9409;SDS011;4744;52.576;13.568;2023-11-19T01:07:02;5.07;;;4.68;;
9409;SDS011;4744;52.576;13.568;2023-11-19T01:09:30;5.55;;;4.93;;
9409;SDS011;4744;52.576;13.568;2023-11-19T01:11:59;4.82;;;4.32;;
9409;SDS011;4744;52.576;13.568;2023-11-19T01:14:26;5.30;;;4.78;;
9409;SDS011;4744;52.576;13.568;2023-11-19T01:16:54;4.90;;;4.47;;
9409;SDS011;4744;52.576;13.568;2023-11-19T01:19:20;5.60;;;5.10;;
9409;SDS011;4744;52.576;13.568;2023-11-19T01:21:48;5.07;;;4.18;;
9409;SDS011;4744;52.576;13.568;2023-11-19T01:24:16;4.85;;;4.45;;
9409;SDS011;4744;52.576;13.568;2023-11-19T01:26:43;4.35;;;4.05;;
9409;SDS011;4744;52.576;13.568;2023-11-19T01:29:10;4.35;;;4.05;;
9409;SDS011;4744;52.576;13.568;2023-11-19T01:31:38;5.07;;;4.50;;
9409;SDS011;4744;52.576;13.568;2023-11-19T01:34:05;4.82;;;4.43;;
9409;SDS011;4744;52.576;13.568;2023-11-19T01:36:32;5.65;;;4.28;;
9409;SDS011;4744;52.576;13.568;2023-11-19T01:38:59;4.75;;;4.35;;
9409;SDS011;4744;52.576;13.568;2023-11-19T01:41:27;4.40;;;4.00;;
9409;SDS011;4744;52.576;13.568;2023-11-19T01:43:54;4.05;;;3.65;;
9409;SDS011;4744;52.576;13.568;2023-11-19T01:46:21;4.10;;;3.80;;
9409;SDS011;4744;52.576;13.568;2023-11-19T01:48:48;4.80;;;4.40;;
9409;SDS011;4744;52.576;13.568;2023-11-19T01:51:15;5.60;;;4.40;;
9409;SDS011;4744;52.576;13.568;2023-11-19T01:53:43;4.43;;;4.10;;
9409;SDS011;4744;52.576;13.568;2023-11-19T01:56:11;4.80;;;4.40;;
9409;SDS011;4744;52.576;13.568;2023-11-19T01:58:42;4.10;;;3.80;;
9409;SDS011;4744;52.576;13.568;2023-11-19T02:01:10;4.53;;;4.05;;
9409;SDS011;4744;52.576;13.568;2023-11-19T02:03:38;5.13;;;4.15;;
9409;SDS011;4744;52.576;13.568;2023-11-19T02:06:06;4.50;;;4.10;;
9409;SDS011;4744;52.576;13.568;2023-11-19T02:08:35;4.30;;;3.88;;
9409;SDS011;4744;52.576;13.568;2023-11-19T02:11:02;4.50;;;4.10;;
9409;SDS011;4744;52.576;13.568;2023-11-19T02:13:31;4.30;;;3.95;;
9409;SDS011;4744;52.576;13.568;2023-11-19T02:16:00;4.72;;;4.32;;
9409;SDS011;4744;52.576;13.568;2023-11-19T02:18:27;4.70;;;4.30;;
9409;SDS011;4744;52.576;13.568;2023-11-19T02:20:54;4.25;;;3.92;;
9409;SDS011;4744;52.576;13.568;2023-11-19T02:23:21;4.07;;;3.75;;
9409;SDS011;4744;52.576;13.568;2023-11-19T02:25:54;4.80;;;4.10;;
9409;SDS011;4744;52.576;13.568;2023-11-19T02:28:33;4.72;;;4.32;;
9409;SDS011;4744;52.576;13.568;2023-11-19T02:31:02;4.78;;;4.38;;
9409;SDS011;4744;52.576;13.568;2023-11-19T02:33:29;4.45;;;4.05;;
9409;SDS011;4744;52.576;13.568;2023-11-19T02:35:57;5.05;;;3.97;;
9409;SDS011;4744;52.576;13.568;2023-11-19T02:38:23;5.07;;;4.43;;
9409;SDS011;4744;52.576;13.568;2023-11-19T02:40:50;4.55;;;4.15;;
9409;SDS011;4744;52.576;13.568;2023-11-19T02:43:17;6.53;;;4.65;;
9409;SDS011;4744;52.576;13.568;2023-11-19T02:45:46;5.15;;;4.65;;
9409;SDS011;4744;52.576;13.568;2023-11-19T02:48:13;4.80;;;4.30;;
9409;SDS011;4744;52.576;13.568;2023-11-19T02:50:41;4.90;;;4.50;;
9409;SDS011;4744;52.576;13.568;2023-11-19T02:53:09;5.15;;;4.65;;
9409;SDS011;4744;52.576;13.568;2023-11-19T02:55:36;4.38;;;3.97;;
9409;SDS011;4744;52.576;13.568;2023-11-19T02:58:06;4.32;;;3.90;;
9409;SDS011;4744;52.576;13.568;2023-11-19T03:00:46;5.93;;;4.30;;
9409;SDS011;4744;52.576;13.568;2023-11-19T03:03:19;4.85;;;4.40;;
9409;SDS011;4744;52.576;13.568;2023-11-19T03:05:47;4.10;;;3.70;;
9409;SDS011;4744;52.576;13.568;2023-11-19T03:08:15;4.07;;;3.67;;
9409;SDS011;4744;52.576;13.568;2023-11-19T03:10:42;4.57;;;4.18;;
9409;SDS011;4744;52.576;13.568;2023-11-19T03:13:10;5.60;;;4.25;;
9409;SDS011;4744;52.576;13.568;2023-11-19T03:15:39;4.35;;;3.95;;
9409;SDS011;4744;52.576;13.568;2023-11-19T03:18:08;4.25;;;3.85;;
9409;SDS011;4744;52.576;13.568;2023-11-19T03:20:34;4.88;;;4.15;;
9409;SDS011;4744;52.576;13.568;2023-11-19T03:23:01;4.32;;;3.92;;
9409;SDS011;4744;52.576;13.568;2023-11-19T03:25:28;4.45;;;4.05;;
9409;SDS011;4744;52.576;13.568;2023-11-19T03:27:58;4.47;;;4.07;;
9409;SDS011;4744;52.576;13.568;2023-11-19T03:30:26;3.83;;;3.53;;
9409;SDS011;4744;52.576;13.568;2023-11-19T03:32:53;4.72;;;4.32;;
9409;SDS011;4744;52.576;13.568;2023-11-19T03:35:21;4.10;;;3.70;;
9409;SDS011;4744;52.576;13.568;2023-11-19T03:37:49;3.65;;;3.35;;
9409;SDS011;4744;52.576;13.568;2023-11-19T03:40:15;4.30;;;3.90;;
9409;SDS011;4744;52.576;13.568;2023-11-19T03:42:42;4.35;;;3.95;;
9409;SDS011;4744;52.576;13.568;2023-11-19T03:45:09;4.22;;;3.83;;
9409;SDS011;4744;52.576;13.568;2023-11-19T03:47:37;4.40;;;4.03;;
9409;SDS011;4744;52.576;13.568;2023-11-19T03:50:04;4.68;;;4.15;;
9409;SDS011;4744;52.576;13.568;2023-11-19T03:52:34;4.20;;;3.78;;
9409;SDS011;4744;52.576;13.568;2023-11-19T03:55:01;4.00;;;3.70;;
9409;SDS011;4744;52.576;13.568;2023-11-19T03:57:28;4.10;;;3.78;;
9409;SDS011;4744;52.576;13.568;2023-11-19T03:59:55;4.32;;;3.92;;
9409;SDS011;4744;52.576;13.568;2023-11-19T04:02:23;4.40;;;4.00;;
9409;SDS011;4744;52.576;13.568;2023-11-19T04:04:52;5.38;;;3.95;;
9409;SDS011;4744;52.576;13.568;2023-11-19T04:07:20;4.15;;;3.80;;
9409;SDS011;4744;52.576;13.568;2023-11-19T04:09:48;4.75;;;4.22;;
9409;SDS011;4744;52.576;13.568;2023-11-19T04:12:16;4.43;;;4.03;;
9409;SDS011;4744;52.576;13.568;2023-11-19T04:14:42;6.00;;;4.15;;
9409;SDS011;4744;52.576;13.568;2023-11-19T04:17:10;5.15;;;4.03;;
9409;SDS011;4744;52.576;13.568;2023-11-19T04:19:37;4.78;;;4.30;;
9409;SDS011;4744;52.576;13.568;2023-11-19T04:22:06;6.13;;;4.45;;
9409;SDS011;4744;52.576;13.568;2023-11-19T04:24:33;5.88;;;4.68;;
9409;SDS011;4744;52.576;13.568;2023-11-19T04:27:01;5.25;;;4.70;;
9409;SDS011;4744;52.576;13.568;2023-11-19T04:29:29;5.40;;;4.90;;
9409;SDS011;4744;52.576;13.568;2023-11-19T04:31:56;5.20;;;4.70;;
9409;SDS011;4744;52.576;13.568;2023-11-19T04:34:23;5.55;;;5.05;;
9409;SDS011;4744;52.576;13.568;2023-11-19T04:36:51;5.28;;;4.78;;
9409;SDS011;4744;52.576;13.568;2023-11-19T04:39:17;5.65;;;5.15;;
9409;SDS011;4744;52.576;13.568;2023-11-19T04:41:47;5.22;;;4.72;;
9409;SDS011;4744;52.576;13.568;2023-11-19T04:44:16;5.43;;;4.63;;
9409;SDS011;4744;52.576;13.568;2023-11-19T04:46:43;5.43;;;4.93;;
9409;SDS011;4744;52.576;13.568;2023-11-19T04:49:10;5.40;;;4.95;;
9409;SDS011;4744;52.576;13.568;2023-11-19T04:51:38;6.18;;;5.57;;
9409;SDS011;4744;52.576;13.568;2023-11-19T04:54:06;5.97;;;5.38;;
9409;SDS011;4744;52.576;13.568;2023-11-19T04:56:34;5.90;;;5.10;;
9409;SDS011;4744;52.576;13.568;2023-11-19T04:59:01;8.07;;;5.50;;
9409;SDS011;4744;52.576;13.568;2023-11-19T05:01:29;5.60;;;5.10;;
9409;SDS011;4744;52.576;13.568;2023-11-19T05:03:56;6.10;;;5.50;;
9409;SDS011;4744;52.576;13.568;2023-11-19T05:06:25;6.10;;;5.50;;
9409;SDS011;4744;52.576;13.568;2023-11-19T05:08:53;6.22;;;5.35;;
9409;SDS011;4744;52.576;13.568;2023-11-19T05:11:20;5.50;;;5.00;;
9409;SDS011;4744;52.576;13.568;2023-11-19T05:13:47;6.20;;;5.35;;
9409;SDS011;4744;52.576;13.568;2023-11-19T05:16:15;6.13;;;5.63;;
9409;SDS011;4744;52.576;13.568;2023-11-19T05:18:44;6.95;;;5.70;;
9409;SDS011;4744;52.576;13.568;2023-11-19T05:21:10;7.03;;;6.32;;
9409;SDS011;4744;52.576;13.568;2023-11-19T05:23:37;7.55;;;5.95;;
9409;SDS011;4744;52.576;13.568;2023-11-19T05:26:04;6.35;;;5.75;;
9409;SDS011;4744;52.576;13.568;2023-11-19T05:28:32;6.68;;;5.75;;
9409;SDS011;4744;52.576;13.568;2023-11-19T05:30:59;9.65;;;6.20;;
9409;SDS011;4744;52.576;13.568;2023-11-19T05:33:26;7.03;;;6.32;;
9409;SDS011;4744;52.576;13.568;2023-11-19T05:35:54;6.25;;;5.57;;
9409;SDS011;4744;52.576;13.568;2023-11-19T05:38:22;6.38;;;5.78;;
9409;SDS011;4744;52.576;13.568;2023-11-19T05:40:49;6.50;;;5.90;;
9409;SDS011;4744;52.576;13.568;2023-11-19T05:43:15;5.88;;;5.38;;
9409;SDS011;4744;52.576;13.568;2023-11-19T05:45:44;6.47;;;5.88;;
9409;SDS011;4744;52.576;13.568;2023-11-19T05:48:11;6.85;;;6.15;;
9409;SDS011;4744;52.576;13.568;2023-11-19T05:50:38;6.03;;;5.53;;
9409;SDS011;4744;52.576;13.568;2023-11-19T05:53:06;6.38;;;5.78;;
9409;SDS011;4744;52.576;13.568;2023-11-19T05:55:35;6.07;;;5.50;;
9409;SDS011;4744;52.576;13.568;2023-11-19T05:58:10;5.97;;;5.47;;
9409;SDS011;4744;52.576;13.568;2023-11-19T06:00:37;5.38;;;4.78;;
9409;SDS011;4744;52.576;13.568;2023-11-19T06:03:04;5.80;;;5.22;;
9409;SDS011;4744;52.576;13.568;2023-11-19T06:05:33;5.97;;;5.47;;
9409;SDS011;4744;52.576;13.568;2023-11-19T06:07:59;6.05;;;4.93;;
9409;SDS011;4744;52.576;13.568;2023-11-19T06:10:28;5.32;;;4.82;;
9409;SDS011;4744;52.576;13.568;2023-11-19T06:12:56;5.40;;;4.90;;
9409;SDS011;4744;52.576;13.568;2023-11-19T06:15:24;5.10;;;4.70;;
9409;SDS011;4744;52.576;13.568;2023-11-19T06:17:52;4.72;;;4.30;;
9409;SDS011;4744;52.576;13.568;2023-11-19T06:20:19;4.78;;;4.38;;
9409;SDS011;4744;52.576;13.568;2023-11-19T06:22:46;5.47;;;4.97;;
9409;SDS011;4744;52.576;13.568;2023-11-19T06:25:13;4.60;;;4.20;;
9409;SDS011;4744;52.576;13.568;2023-11-19T06:27:42;5.35;;;4.85;;
9409;SDS011;4744;52.576;13.568;2023-11-19T06:30:10;4.85;;;4.40;;
9409;SDS011;4744;52.576;13.568;2023-11-19T06:32:37;4.82;;;4.43;;
9409;SDS011;4744;52.576;13.568;2023-11-19T06:35:05;4.68;;;4.25;;
9409;SDS011;4744;52.576;13.568;2023-11-19T06:37:32;4.85;;;4.47;;
9409;SDS011;4744;52.576;13.568;2023-11-19T06:39:59;4.65;;;4.25;;
9409;SDS011;4744;52.576;13.568;2023-11-19T06:42:26;4.07;;;3.78;;
9409;SDS011;4744;52.576;13.568;2023-11-19T06:44:54;4.55;;;4.15;;
9409;SDS011;4744;52.576;13.568;2023-11-19T06:47:22;4.40;;;4.03;;
9409;SDS011;4744;52.576;13.568;2023-11-19T06:49:49;4.65;;;4.25;;
9409;SDS011;4744;52.576;13.568;2023-11-19T06:52:16;4.40;;;4.00;;
9409;SDS011;4744;52.576;13.568;2023-11-19T06:54:43;5.60;;;4.07;;
9409;SDS011;4744;52.576;13.568;2023-11-19T06:57:10;4.30;;;4.00;;
9409;SDS011;4744;52.576;13.568;2023-11-19T06:59:37;4.22;;;3.92;;
9409;SDS011;4744;52.576;13.568;2023-11-19T07:02:05;4.00;;;3.70;;
9409;SDS011;4744;52.576;13.568;2023-11-19T07:04:32;4.22;;;3.92;;
9409;SDS011;4744;52.576;13.568;2023-11-19T07:06:59;4.07;;;3.78;;
9409;SDS011;4744;52.576;13.568;2023-11-19T07:09:26;4.05;;;3.72;;
9409;SDS011;4744;52.576;13.568;2023-11-19T07:11:53;4.00;;;3.70;;
9409;SDS011;4744;52.576;13.568;2023-11-19T07:14:21;3.78;;;3.53;;
9409;SDS011;4744;52.576;13.568;2023-11-19T07:16:48;4.20;;;3.90;;
9409;SDS011;4744;52.576;13.568;2023-11-19T07:19:17;3.97;;;3.67;;
9409;SDS011;4744;52.576;13.568;2023-11-19T07:21:44;4.05;;;3.67;;
9409;SDS011;4744;52.576;13.568;2023-11-19T07:24:11;4.00;;;3.70;;
9409;SDS011;4744;52.576;13.568;2023-11-19T07:26:40;3.20;;;3.00;;
9409;SDS011;4744;52.576;13.568;2023-11-19T07:29:08;3.60;;;3.30;;
9409;SDS011;4744;52.576;13.568;2023-11-19T07:31:35;3.47;;;3.17;;
9409;SDS011;4744;52.576;13.568;2023-11-19T07:34:02;3.92;;;3.30;;
9409;SDS011;4744;52.576;13.568;2023-11-19T07:36:31;3.50;;;3.20;;
9409;SDS011;4744;52.576;13.568;2023-11-19T07:38:59;3.45;;;3.17;;
9409;SDS011;4744;52.576;13.568;2023-11-19T07:41:25;3.35;;;3.15;;
9409;SDS011;4744;52.576;13.568;2023-11-19T07:43:52;3.25;;;3.05;;
9409;SDS011;4744;52.576;13.568;2023-11-19T07:46:20;3.20;;;3.00;;
9409;SDS011;4744;52.576;13.568;2023-11-19T07:48:47;3.13;;;2.92;;
9409;SDS011;4744;52.576;13.568;2023-11-19T07:51:14;3.63;;;3.33;;
9409;SDS011;4744;52.576;13.568;2023-11-19T07:53:43;3.38;;;3.10;;
9409;SDS011;4744;52.576;13.568;2023-11-19T07:56:10;3.03;;;2.83;;
9409;SDS011;4744;52.576;13.568;2023-11-19T07:58:37;3.47;;;3.17;;
9409;SDS011;4744;52.576;13.568;2023-11-19T08:01:04;3.55;;;3.30;;
9409;SDS011;4744;52.576;13.568;2023-11-19T08:03:31;3.72;;;3.42;;
9409;SDS011;4744;52.576;13.568;2023-11-19T08:05:59;3.55;;;3.35;;
9409;SDS011;4744;52.576;13.568;2023-11-19T08:08:26;3.45;;;3.25;;
9409;SDS011;4744;52.576;13.568;2023-11-19T08:10:55;3.92;;;3.63;;
9409;SDS011;4744;52.576;13.568;2023-11-19T08:13:23;4.00;;;3.70;;
9409;SDS011;4744;52.576;13.568;2023-11-19T08:15:50;3.88;;;3.60;;
9409;SDS011;4744;52.576;13.568;2023-11-19T08:18:17;4.00;;;3.70;;
9409;SDS011;4744;52.576;13.568;2023-11-19T08:20:44;4.00;;;3.70;;
9409;SDS011;4744;52.576;13.568;2023-11-19T08:23:14;4.57;;;4.18;;
9409;SDS011;4744;52.576;13.568;2023-11-19T08:25:41;4.30;;;3.90;;
9409;SDS011;4744;52.576;13.568;2023-11-19T08:28:09;4.72;;;4.25;;
9409;SDS011;4744;52.576;13.568;2023-11-19T08:30:36;4.18;;;3.88;;
9409;SDS011;4744;52.576;13.568;2023-11-19T08:33:03;5.75;;;5.25;;
9409;SDS011;4744;52.576;13.568;2023-11-19T08:35:31;4.55;;;4.15;;
9409;SDS011;4744;52.576;13.568;2023-11-19T08:37:58;5.00;;;4.20;;
9409;SDS011;4744;52.576;13.568;2023-11-19T08:40:25;4.25;;;3.95;;
9409;SDS011;4744;52.576;13.568;2023-11-19T08:42:52;4.95;;;4.22;;
9409;SDS011;4744;52.576;13.568;2023-11-19T08:45:20;4.63;;;4.22;;
9409;SDS011;4744;52.576;13.568;2023-11-19T08:47:47;4.85;;;4.38;;
9409;SDS011;4744;52.576;13.568;2023-11-19T08:50:14;4.47;;;4.07;;
9409;SDS011;4744;52.576;13.568;2023-11-19T08:52:41;4.75;;;4.30;;
9409;SDS011;4744;52.576;13.568;2023-11-19T08:55:08;4.72;;;4.32;;
9409;SDS011;4744;52.576;13.568;2023-11-19T08:57:35;4.30;;;4.00;;
9409;SDS011;4744;52.576;13.568;2023-11-19T09:00:00;4.90;;;4.50;;
9409;SDS011;4744;52.576;13.568;2023-11-19T09:02:29;5.25;;;4.72;;
9409;SDS011;4744;52.576;13.568;2023-11-19T09:04:57;6.65;;;6.05;;
9409;SDS011;4744;52.576;13.568;2023-11-19T09:07:24;7.05;;;6.45;;
9409;SDS011;4744;52.576;13.568;2023-11-19T09:09:51;6.53;;;5.93;;
9409;SDS011;4744;52.576;13.568;2023-11-19T09:12:18;6.63;;;6.03;;
9409;SDS011;4744;52.576;13.568;2023-11-19T09:14:44;7.07;;;6.47;;
9409;SDS011;4744;52.576;13.568;2023-11-19T09:17:11;7.05;;;6.45;;
9409;SDS011;4744;52.576;13.568;2023-11-19T09:19:40;6.85;;;6.20;;
9409;SDS011;4744;52.576;13.568;2023-11-19T09:22:07;6.25;;;5.72;;
9409;SDS011;4744;52.576;13.568;2023-11-19T09:24:34;5.65;;;5.25;;
9409;SDS011;4744;52.576;13.568;2023-11-19T09:27:00;5.70;;;5.20;;
9409;SDS011;4744;52.576;13.568;2023-11-19T09:29:27;6.18;;;5.63;;
9409;SDS011;4744;52.576;13.568;2023-11-19T09:31:57;6.57;;;5.97;;
9409;SDS011;4744;52.576;13.568;2023-11-19T09:34:24;6.30;;;5.72;;
9409;SDS011;4744;52.576;13.568;2023-11-19T09:36:52;6.82;;;6.22;;
9409;SDS011;4744;52.576;13.568;2023-11-19T09:39:19;6.57;;;6.07;;
9409;SDS011;4744;52.576;13.568;2023-11-19T09:41:46;7.00;;;6.40;;
9409;SDS011;4744;52.576;13.568;2023-11-19T09:44:14;6.57;;;5.93;;
9409;SDS011;4744;52.576;13.568;2023-11-19T09:46:43;7.60;;;6.55;;
9409;SDS011;4744;52.576;13.568;2023-11-19T09:49:10;7.20;;;6.53;;
9409;SDS011;4744;52.576;13.568;2023-11-19T09:51:39;6.80;;;6.20;;
9409;SDS011;4744;52.576;13.568;2023-11-19T09:54:08;6.47;;;5.78;;
9409;SDS011;4744;52.576;13.568;2023-11-19T09:56:35;6.53;;;5.93;;
9409;SDS011;4744;52.576;13.568;2023-11-19T09:59:04;6.32;;;5.72;;
9409;SDS011;4744;52.576;13.568;2023-11-19T10:01:31;6.55;;;5.95;;
9409;SDS011;4744;52.576;13.568;2023-11-19T10:03:59;6.00;;;5.50;;
9409;SDS011;4744;52.576;13.568;2023-11-19T10:06:27;6.57;;;5.22;;
9409;SDS011;4744;52.576;13.568;2023-11-19T10:08:54;5.72;;;5.03;;
9409;SDS011;4744;52.576;13.568;2023-11-19T10:11:23;5.15;;;4.75;;
9409;SDS011;4744;52.576;13.568;2023-11-19T10:13:50;5.60;;;5.05;;
9409;SDS011;4744;52.576;13.568;2023-11-19T10:16:18;7.88;;;5.43;;
9409;SDS011;4744;52.576;13.568;2023-11-19T10:18:45;7.20;;;5.03;;
9409;SDS011;4744;52.576;13.568;2023-11-19T10:21:12;5.28;;;4.78;;
9409;SDS011;4744;52.576;13.568;2023-11-19T10:23:48;7.68;;;5.72;;
9409;SDS011;4744;52.576;13.568;2023-11-19T10:26:17;6.63;;;5.53;;
9409;SDS011;4744;52.576;13.568;2023-11-19T10:28:46;7.38;;;5.00;;
9409;SDS011;4744;52.576;13.568;2023-11-19T10:31:13;5.85;;;5.15;;
9409;SDS011;4744;52.576;13.568;2023-11-19T10:33:40;5.65;;;4.40;;
9409;SDS011;4744;52.576;13.568;2023-11-19T10:36:10;5.45;;;3.90;;
9409;SDS011;4744;52.576;13.568;2023-11-19T10:38:38;4.13;;;3.72;;
9409;SDS011;4744;52.576;13.568;2023-11-19T10:41:05;4.38;;;3.17;;
9409;SDS011;4744;52.576;13.568;2023-11-19T10:43:42;3.50;;;3.10;;
9409;SDS011;4744;52.576;13.568;2023-11-19T10:46:12;4.50;;;3.83;;
9409;SDS011;4744;52.576;13.568;2023-11-19T10:48:46;5.55;;;3.22;;
9409;SDS011;4744;52.576;13.568;2023-11-19T10:51:13;4.28;;;2.92;;
9409;SDS011;4744;52.576;13.568;2023-11-19T10:53:46;4.35;;;2.80;;
9409;SDS011;4744;52.576;13.568;2023-11-19T10:56:15;4.65;;;2.78;;
9409;SDS011;4744;52.576;13.568;2023-11-19T10:58:44;3.58;;;2.70;;
9409;SDS011;4744;52.576;13.568;2023-11-19T11:01:16;3.33;;;2.75;;
9409;SDS011;4744;52.576;13.568;2023-11-19T11:03:46;6.78;;;3.00;;
9409;SDS011;4744;52.576;13.568;2023-11-19T11:06:14;7.38;;;2.72;;
9409;SDS011;4744;52.576;13.568;2023-11-19T11:08:42;5.97;;;2.80;;
9409;SDS011;4744;52.576;13.568;2023-11-19T11:11:09;4.60;;;2.83;;
9409;SDS011;4744;52.576;13.568;2023-11-19T11:13:41;4.65;;;2.70;;
9409;SDS011;4744;52.576;13.568;2023-11-19T11:16:09;3.00;;;2.50;;
9409;SDS011;4744;52.576;13.568;2023-11-19T11:18:37;7.78;;;2.88;;
9409;SDS011;4744;52.576;13.568;2023-11-19T11:21:05;8.10;;;2.90;;
9409;SDS011;4744;52.576;13.568;2023-11-19T11:23:47;6.82;;;3.35;;
9409;SDS011;4744;52.576;13.568;2023-11-19T11:26:51;6.85;;;3.08;;
9409;SDS011;4744;52.576;13.568;2023-11-19T11:29:35;11.68;;;2.97;;
9409;SDS011;4744;52.576;13.568;2023-11-19T11:32:10;6.47;;;2.78;;
9409;SDS011;4744;52.576;13.568;2023-11-19T11:34:52;5.78;;;2.67;;
9409;SDS011;4744;52.576;13.568;2023-11-19T11:37:35;5.55;;;2.80;;
9409;SDS011;4744;52.576;13.568;2023-11-19T11:40:13;9.70;;;3.22;;
9409;SDS011;4744;52.576;13.568;2023-11-19T11:42:41;8.68;;;2.85;;
9409;SDS011;4744;52.576;13.568;2023-11-19T11:45:08;9.30;;;3.05;;
9409;SDS011;4744;52.576;13.568;2023-11-19T11:50:56;6.97;;;2.63;;
9409;SDS011;4744;52.576;13.568;2023-11-19T11:53:24;7.80;;;2.28;;
9409;SDS011;4744;52.576;13.568;2023-11-19T11:55:53;9.77;;;3.08;;
9409;SDS011;4744;52.576;13.568;2023-11-19T11:58:21;8.23;;;2.40;;
9409;SDS011;4744;52.576;13.568;2023-11-19T12:00:52;12.63;;;3.10;;
9409;SDS011;4744;52.576;13.568;2023-11-19T12:03:19;10.77;;;3.03;;
9409;SDS011;4744;52.576;13.568;2023-11-19T12:05:48;9.75;;;3.13;;
9409;SDS011;4744;52.576;13.568;2023-11-19T12:08:18;11.82;;;3.58;;
9409;SDS011;4744;52.576;13.568;2023-11-19T12:10:47;7.05;;;2.83;;
9409;SDS011;4744;52.576;13.568;2023-11-19T12:13:15;8.35;;;3.03;;
9409;SDS011;4744;52.576;13.568;2023-11-19T12:18:34;9.60;;;3.03;;
9409;SDS011;4744;52.576;13.568;2023-11-19T12:21:01;11.10;;;3.40;;
9409;SDS011;4744;52.576;13.568;2023-11-19T12:23:29;11.02;;;3.03;;
9409;SDS011;4744;52.576;13.568;2023-11-19T12:25:57;10.25;;;3.45;;
9409;SDS011;4744;52.576;13.568;2023-11-19T12:28:24;11.88;;;3.45;;
9409;SDS011;4744;52.576;13.568;2023-11-19T12:30:52;15.65;;;4.18;;
9409;SDS011;4744;52.576;13.568;2023-11-19T12:33:19;11.05;;;3.78;;
9409;SDS011;4744;52.576;13.568;2023-11-19T12:35:47;11.23;;;3.05;;
9409;SDS011;4744;52.576;13.568;2023-11-19T12:38:20;11.30;;;3.22;;
9409;SDS011;4744;52.576;13.568;2023-11-19T12:41:03;11.43;;;3.53;;
9409;SDS011;4744;52.576;13.568;2023-11-19T12:43:30;8.68;;;3.63;;
9409;SDS011;4744;52.576;13.568;2023-11-19T12:45:59;12.45;;;3.55;;
9409;SDS011;4744;52.576;13.568;2023-11-19T12:48:26;6.47;;;2.80;;
9409;SDS011;4744;52.576;13.568;2023-11-19T12:50:53;12.90;;;3.90;;
9409;SDS011;4744;52.576;13.568;2023-11-19T12:53:22;10.25;;;3.25;;
9409;SDS011;4744;52.576;13.568;2023-11-19T12:55:50;10.45;;;3.67;;
9409;SDS011;4744;52.576;13.568;2023-11-19T12:58:29;10.02;;;3.40;;
9409;SDS011;4744;52.576;13.568;2023-11-19T13:00:59;10.85;;;4.18;;
9409;SDS011;4744;52.576;13.568;2023-11-19T13:03:30;8.88;;;3.40;;
9409;SDS011;4744;52.576;13.568;2023-11-19T13:06:01;11.98;;;3.63;;
9409;SDS011;4744;52.576;13.568;2023-11-19T13:08:29;12.30;;;3.78;;
9409;SDS011;4744;52.576;13.568;2023-11-19T13:11:03;11.00;;;3.42;;
9409;SDS011;4744;52.576;13.568;2023-11-19T13:13:32;8.18;;;3.28;;
9409;SDS011;4744;52.576;13.568;2023-11-19T13:16:04;10.80;;;3.50;;
9409;SDS011;4744;52.576;13.568;2023-11-19T13:18:31;11.30;;;3.28;;
9409;SDS011;4744;52.576;13.568;2023-11-19T13:20:58;10.60;;;3.70;;
9409;SDS011;4744;52.576;13.568;2023-11-19T13:23:26;11.77;;;3.75;;
9409;SDS011;4744;52.576;13.568;2023-11-19T13:25:52;12.27;;;3.55;;
9409;SDS011;4744;52.576;13.568;2023-11-19T13:28:19;11.48;;;3.80;;
9409;SDS011;4744;52.576;13.568;2023-11-19T13:30:49;12.23;;;3.53;;
9409;SDS011;4744;52.576;13.568;2023-11-19T13:33:18;11.55;;;3.60;;
9409;SDS011;4744;52.576;13.568;2023-11-19T13:35:45;10.32;;;3.20;;
9409;SDS011;4744;52.576;13.568;2023-11-19T13:38:12;10.35;;;3.15;;
9409;SDS011;4744;52.576;13.568;2023-11-19T13:40:39;12.48;;;3.65;;
9409;SDS011;4744;52.576;13.568;2023-11-19T13:43:06;11.15;;;3.47;;
9409;SDS011;4744;52.576;13.568;2023-11-19T13:45:33;10.48;;;3.72;;
9409;SDS011;4744;52.576;13.568;2023-11-19T13:48:02;10.80;;;3.72;;
9409;SDS011;4744;52.576;13.568;2023-11-19T13:50:29;10.68;;;3.17;;
9409;SDS011;4744;52.576;13.568;2023-11-19T13:52:57;10.55;;;3.38;;
9409;SDS011;4744;52.576;13.568;2023-11-19T13:55:24;11.05;;;3.38;;
9409;SDS011;4744;52.576;13.568;2023-11-19T13:57:51;15.75;;;4.18;;
9409;SDS011;4744;52.576;13.568;2023-11-19T14:00:18;9.27;;;3.60;;
9409;SDS011;4744;52.576;13.568;2023-11-19T14:02:46;10.90;;;3.65;;
9409;SDS011;4744;52.576;13.568;2023-11-19T14:05:15;14.98;;;3.90;;
9409;SDS011;4744;52.576;13.568;2023-11-19T14:07:42;9.18;;;3.40;;
9409;SDS011;4744;52.576;13.568;2023-11-19T14:10:11;10.48;;;3.40;;
9409;SDS011;4744;52.576;13.568;2023-11-19T14:12:38;12.10;;;3.40;;
9409;SDS011;4744;52.576;13.568;2023-11-19T14:15:05;12.10;;;3.80;;
9409;SDS011;4744;52.576;13.568;2023-11-19T14:17:32;8.32;;;3.30;;
9409;SDS011;4744;52.576;13.568;2023-11-19T14:20:00;11.02;;;3.38;;
9409;SDS011;4744;52.576;13.568;2023-11-19T14:22:29;10.68;;;3.58;;
9409;SDS011;4744;52.576;13.568;2023-11-19T14:24:56;11.07;;;3.78;;
9409;SDS011;4744;52.576;13.568;2023-11-19T14:27:23;10.77;;;4.03;;
9409;SDS011;4744;52.576;13.568;2023-11-19T14:29:50;13.55;;;4.25;;
9409;SDS011;4744;52.576;13.568;2023-11-19T14:32:17;12.60;;;3.97;;
9409;SDS011;4744;52.576;13.568;2023-11-19T14:34:44;13.75;;;4.10;;
9409;SDS011;4744;52.576;13.568;2023-11-19T14:37:11;14.32;;;3.67;;
9409;SDS011;4744;52.576;13.568;2023-11-19T14:39:39;13.52;;;4.10;;
9409;SDS011;4744;52.576;13.568;2023-11-19T14:42:06;15.90;;;4.35;;
9409;SDS011;4744;52.576;13.568;2023-11-19T14:44:34;10.13;;;3.72;;
9409;SDS011;4744;52.576;13.568;2023-11-19T14:47:01;9.35;;;3.78;;
9409;SDS011;4744;52.576;13.568;2023-11-19T14:49:29;11.05;;;4.05;;
9409;SDS011;4744;52.576;13.568;2023-11-19T14:51:55;12.05;;;4.22;;
9409;SDS011;4744;52.576;13.568;2023-11-19T14:54:22;15.10;;;4.40;;
9409;SDS011;4744;52.576;13.568;2023-11-19T14:56:51;11.77;;;3.80;;
9409;SDS011;4744;52.576;13.568;2023-11-19T14:59:18;10.20;;;3.60;;
9409;SDS011;4744;52.576;13.568;2023-11-19T15:01:44;17.02;;;4.70;;
9409;SDS011;4744;52.576;13.568;2023-11-19T15:04:11;12.70;;;4.10;;
9409;SDS011;4744;52.576;13.568;2023-11-19T15:06:37;15.90;;;4.60;;
9409;SDS011;4744;52.576;13.568;2023-11-19T15:09:04;9.98;;;3.55;;